Terminal Aerodrome Forecast
Issued by NWS Charleston, WV

Current Version | Previous Version | Text Only | Print | Product List | Glossary Off
Versions: 1 2 3 4 5 6 7 8 9 10 11 12 13 14 15 16 17 18 19 20 21 22 23 24 25 26

000
FTUS41 KRLX 261700
TAFCRW
TAF
KCRW 261738Z 2618/2718 27011G17KT 1SM -SN BR OVC003
     FM262300 29007KT 2SM -SN BR OVC008
     FM270000 30007KT 4SM -SN BR OVC008
     FM270200 30006KT 4SM BR OVC008
     FM271000 31004KT P6SM BKN008=

USA.gov is the U.S. government's official web portal to all federal, state and local government web resources and services.